Time;durP1;ratioP1;P1;durP2;ratioP2;P2;SDS_P1;SDS_P2;PMS_P1;PMS_P2;Temp;Humidity;BMP_temperature;BMP_pressure;BME280_temperature;BME280_humidity;BME280_pressure;Samples;Min_cycle;Max_cycle;Signal;HPM_P1;HPM_P2
2021/11/07 15:22:04;;;;;;;6.00;1.80;;;;;;;20.74;31.75;92555.63;5085401;27;20399;-65
2021/11/07 15:24:42;;;;;;;3.00;1.60;;;;;;;20.84;31.58;92560.41;5075046;28;20122;-63
2021/11/07 15:30:24;;;;;;;5.68;2.42;;;;;;;19.41;25.86;92546.31;5053380;28;20385;-77
2021/11/07 15:32:49;;;;;;;4.28;1.90;;;;;;;17.40;28.16;92542.91;5008372;28;20034;-75
2021/11/07 15:35:29;;;;;;;5.72;2.30;;;;;;;15.51;31.35;92555.81;5008784;28;20034;-76
2021/11/07 15:37:54;;;;;;;8.82;4.30;;;;;;;14.06;33.51;92547.25;5007603;28;20046;-77
2021/11/07 15:40:32;;;;;;;10.07;4.72;;;;;;;12.84;35.13;92549.22;5008048;28;20036;-76
2021/11/07 15:42:58;;;;;;;7.03;3.47;;;;;;;12.01;36.80;92554.66;5009296;28;20049;-76
2021/11/07 15:45:25;;;;;;;4.53;2.10;;;;;;;11.33;37.26;92551.69;5007322;28;20030;-76
2021/11/07 15:47:55;;;;;;;4.68;2.30;;;;;;;10.80;38.38;92557.22;5007028;28;20048;-76
2021/11/07 15:53:03;;;;;;;8.90;4.38;;;;;;;10.07;39.88;92563.72;4996014;28;20038;-75
2021/11/07 15:55:41;;;;;;;7.10;3.72;;;;;;;9.75;42.12;92568.50;4998293;28;20038;-75
2021/11/07 16:03:43;;;;;;;4.95;2.80;;;;;;;9.14;43.43;92569.09;4992803;28;20045;-75
2021/11/07 16:11:44;;;;;;;4.50;2.28;;;;;;;8.45;43.71;92569.09;4996475;28;20380;-76
2021/11/07 16:17:10;;;;;;;4.72;2.53;;;;;;;8.08;43.59;92574.72;5002443;28;20519;-75
2021/11/07 16:19:39;;;;;;;3.55;1.85;;;;;;;7.91;43.23;92573.22;5000977;28;20030;-74
2021/11/07 16:22:04;;;;;;;6.28;2.90;;;;;;;7.83;42.36;92578.22;5005402;28;20506;-75
2021/11/07 16:24:31;;;;;;;8.30;3.78;;;;;;;7.68;43.06;92587.66;5003814;28;20038;-75
2021/11/07 16:27:00;;;;;;;7.57;3.22;;;;;;;7.57;43.78;92575.69;5037094;28;20065;-75
2021/11/07 16:29:30;;;;;;;7.15;3.65;;;;;;;7.42;44.78;92575.72;5007122;28;20129;-75
2021/11/07 16:35:10;;;;;;;2.97;1.70;;;;;;;7.23;42.21;92573.69;5002740;28;20419;-76
2021/11/07 16:37:41;;;;;;;4.20;2.20;;;;;;;7.23;42.67;92578.13;4995075;28;20062;-76
2021/11/07 16:40:25;;;;;;;3.83;2.00;;;;;;;7.17;43.01;92577.31;5000758;28;20504;-76
2021/11/07 16:42:51;;;;;;;6.93;4.28;;;;;;;7.06;43.90;92576.56;4991021;28;20408;-76
2021/11/07 16:45:17;;;;;;;10.73;6.18;;;;;;;6.95;44.11;92574.22;4991802;28;20424;-77
2021/11/07 16:47:47;;;;;;;13.15;6.95;;;;;;;6.79;44.24;92573.44;5003690;28;20113;-77
2021/11/07 16:50:15;;;;;;;14.10;6.78;;;;;;;6.65;44.63;92573.19;4992921;28;20123;-79
2021/11/07 16:52:45;;;;;;;14.40;7.38;;;;;;;6.56;43.95;92578.09;4992235;28;20034;-77
2021/11/07 16:55:14;;;;;;;17.52;7.93;;;;;;;6.50;43.53;92571.34;4981324;28;20042;-78
2021/11/07 16:57:42;;;;;;;22.15;10.63;;;;;;;6.46;43.58;92567.69;5022684;28;20488;-76
2021/11/07 17:00:18;;;;;;;15.20;6.82;;;;;;;6.39;43.82;92562.72;4998189;28;20448;-75
2021/11/07 17:02:49;;;;;;;11.88;5.88;;;;;;;6.27;44.32;92558.84;4993147;28;20042;-76
2021/11/07 17:05:24;;;;;;;13.73;7.35;;;;;;;6.23;43.48;92559.31;4991384;28;20034;-76
2021/11/07 17:10:28;;;;;;;11.43;6.78;;;;;;;6.14;44.62;92573.09;4991370;28;20041;-77
2021/11/07 17:13:00;;;;;;;8.57;4.43;;;;;;;6.09;44.18;92581.66;4991920;28;20026;-75
2021/11/07 17:15:35;;;;;;;6.47;4.18;;;;;;;6.02;45.28;92573.31;4993518;28;20061;-77
2021/11/07 17:18:22;;;;;;;10.82;5.65;;;;;;;5.99;45.54;92577.22;4986977;28;21355;-76
2021/11/07 17:20:59;;;;;;;10.50;4.72;;;;;;;6.00;44.97;92575.38;4985493;28;20061;-76
2021/11/07 17:25:56;;;;;;;24.60;11.20;;;;;;;5.89;44.71;92576.38;5003344;28;20061;-76
2021/11/07 17:28:32;;;;;;;23.23;12.55;;;;;;;5.84;45.25;92577.13;4990104;28;20051;-77
2021/11/07 17:33:34;;;;;;;18.33;7.75;;;;;;;5.76;44.94;92580.97;4986728;28;20043;-78
2021/11/07 17:54:42;;;;;;;8.10;4.82;;;;;;;5.41;46.95;92589.41;4991737;28;20050;-76
2021/11/07 17:57:10;;;;;;;6.40;3.55;;;;;;;5.31;46.78;92594.50;4988553;28;20053;-76
2021/11/07 17:59:36;;;;;;;7.35;4.00;;;;;;;5.22;46.30;92592.41;4991452;28;20518;-76
2021/11/07 18:02:03;;;;;;;7.10;3.85;;;;;;;5.16;46.35;92597.81;4992943;28;20030;-76
2021/11/07 18:04:30;;;;;;;6.20;3.00;;;;;;;5.12;46.13;92592.31;4977682;28;20101;-76
2021/11/07 18:07:01;;;;;;;5.97;2.97;;;;;;;5.07;45.68;92583.75;4991263;28;20484;-76
2021/11/07 18:09:29;;;;;;;9.65;3.35;;;;;;;5.05;45.61;92591.75;4994190;28;20061;-75
2021/11/07 18:11:57;;;;;;;8.40;3.58;;;;;;;5.04;45.32;92577.22;4992465;28;20072;-74
2021/11/07 18:14:23;;;;;;;7.78;4.43;;;;;;;5.01;45.38;92575.91;4992391;28;20189;-75
2021/11/07 18:16:52;;;;;;;7.25;3.70;;;;;;;4.98;46.09;92586.00;4959051;28;20080;-73
2021/11/07 18:19:19;;;;;;;6.68;4.05;;;;;;;4.95;46.20;92579.50;4990607;28;20034;-75
2021/11/07 18:25:03;;;;;;;5.82;2.90;;;;;;;4.94;46.62;92564.19;4992393;28;20053;-76
2021/11/07 18:27:32;;;;;;;4.78;2.65;;;;;;;4.93;46.20;92565.19;4988556;28;20544;-75
2021/11/07 18:30:03;;;;;;;4.43;2.42;;;;;;;4.90;46.47;92563.13;4991670;28;20096;-76
2021/11/07 18:32:29;;;;;;;4.13;2.20;;;;;;;4.89;46.77;92567.53;4992345;28;20499;-76
2021/11/07 18:34:56;;;;;;;57.53;23.83;;;;;;;4.85;46.77;92560.50;4993709;28;20030;-75
2021/11/07 18:37:23;;;;;;;26.92;10.98;;;;;;;4.85;46.65;92553.50;4990378;28;20396;-75
2021/11/07 18:39:50;;;;;;;14.20;5.78;;;;;;;4.84;46.91;92543.34;4990253;28;20039;-74
2021/11/07 18:42:16;;;;;;;17.98;7.15;;;;;;;4.87;47.13;92546.25;4991593;28;20121;-74
2021/11/07 18:44:42;;;;;;;14.48;6.55;;;;;;;4.85;47.73;92537.94;4990800;28;20158;-74
2021/11/07 18:47:08;;;;;;;17.60;4.70;;;;;;;4.83;47.21;92539.22;4992212;28;20105;-75
2021/11/07 18:49:36;;;;;;;7.05;3.25;;;;;;;4.84;46.88;92531.19;4992157;28;20046;-74
2021/11/07 18:52:04;;;;;;;4.03;2.03;;;;;;;4.85;46.77;92530.16;4991405;28;20022;-74
2021/11/07 18:54:29;;;;;;;6.60;3.20;;;;;;;4.84;47.60;92532.97;4990690;28;20052;-74
2021/11/07 18:56:55;;;;;;;5.57;2.88;;;;;;;4.83;47.69;92532.19;4992077;28;20022;-74
2021/11/07 18:59:21;;;;;;;3.03;1.73;;;;;;;4.83;46.98;92531.44;4991856;28;20062;-75
2021/11/07 19:01:47;;;;;;;5.20;2.60;;;;;;;4.84;46.90;92527.78;4990582;28;20117;-75
2021/11/07 19:04:15;;;;;;;9.73;3.60;;;;;;;4.80;47.31;92527.53;4987333;28;20030;-74
2021/11/07 19:06:41;;;;;;;13.52;7.70;;;;;;;4.78;47.25;92527.00;4990337;28;20488;-74
2021/11/07 19:09:07;;;;;;;20.75;10.75;;;;;;;4.73;47.28;92519.97;4991248;28;20045;-74
2021/11/07 19:11:34;;;;;;;35.08;13.35;;;;;;;4.69;47.30;92521.47;4991648;28;20045;-75
2021/11/07 19:14:01;;;;;;;32.25;13.25;;;;;;;4.66;47.32;92521.19;4990260;28;20041;-74
2021/11/07 19:16:30;;;;;;;22.48;7.63;;;;;;;4.63;47.81;92525.06;4974266;28;20057;-74
2021/11/07 19:18:57;;;;;;;23.92;10.07;;;;;;;4.61;47.80;92527.09;4991706;28;20034;-74
2021/11/07 19:21:23;;;;;;;44.85;14.45;;;;;;;4.59;47.89;92516.19;4991723;28;20101;-74
2021/11/07 19:23:49;;;;;;;21.35;7.95;;;;;;;4.57;48.50;92513.06;4991413;28;20030;-74
2021/11/07 19:26:17;;;;;;;25.40;10.05;;;;;;;4.53;49.59;92520.59;4990771;28;20492;-74
2021/11/07 19:28:43;;;;;;;18.88;6.18;;;;;;;4.50;49.68;92523.69;4990759;28;20061;-74
2021/11/07 19:31:09;;;;;;;18.25;6.85;;;;;;;4.45;49.29;92526.22;4988978;28;20366;-74
2021/11/07 19:33:35;;;;;;;17.83;8.38;;;;;;;4.41;49.32;92519.94;4972264;28;20051;-74
2021/11/07 19:36:02;;;;;;;33.83;10.95;;;;;;;4.40;50.37;92517.63;4979968;28;20031;-75
2021/11/07 19:38:28;;;;;;;30.27;10.30;;;;;;;4.38;50.09;92510.88;4971875;28;20225;-75
2021/11/07 19:40:53;;;;;;;33.67;9.48;;;;;;;4.35;49.63;92519.13;4985077;28;20407;-75
2021/11/07 19:43:20;;;;;;;16.27;5.07;;;;;;;4.34;49.00;92520.16;4977160;28;20038;-75
2021/11/07 19:45:50;;;;;;;10.43;4.00;;;;;;;4.35;49.07;92519.13;4978140;28;20037;-75
2021/11/07 19:48:30;;;;;;;19.80;7.38;;;;;;;4.34;48.40;92514.97;4988856;28;20571;-75
2021/11/07 19:50:58;;;;;;;16.45;5.45;;;;;;;4.36;48.67;92518.09;5014646;28;20049;-75
2021/11/07 19:53:23;;;;;;;20.55;7.03;;;;;;;4.35;48.65;92523.56;4981192;28;20088;-75
2021/11/07 19:55:49;;;;;;;49.63;13.05;;;;;;;4.31;48.73;92528.44;4987960;28;20038;-75
2021/11/07 19:58:15;;;;;;;42.25;10.30;;;;;;;4.31;48.84;92528.44;4991419;28;20399;-75
2021/11/07 20:11:02;;;;;;;13.18;5.20;;;;;;;4.30;48.47;92536.44;4987177;28;20049;-75
2021/11/07 20:13:27;;;;;;;12.85;4.05;;;;;;;4.29;48.00;92533.06;4990009;28;20662;-74
2021/11/07 20:15:54;;;;;;;195.68;47.72;;;;;;;4.28;48.05;92544.47;4990846;28;20034;-74
2021/11/07 20:18:21;;;;;;;112.47;42.10;;;;;;;4.31;47.99;92543.97;4993216;28;20029;-75
2021/11/07 20:20:48;;;;;;;31.30;13.65;;;;;;;4.31;48.28;92546.56;4994591;28;20038;-75
2021/11/07 20:23:14;;;;;;;10.48;4.47;;;;;;;4.32;48.27;92553.34;4994765;28;20046;-75
2021/11/07 20:25:40;;;;;;;4.43;2.70;;;;;;;4.31;48.31;92556.16;4990808;28;20027;-75
2021/11/07 20:28:12;;;;;;;4.78;2.60;;;;;;;4.30;47.62;92559.75;4974854;28;20039;-75
2021/11/07 20:30:38;;;;;;;6.97;2.97;;;;;;;4.30;47.70;92552.81;4978954;28;20080;-75
2021/11/07 20:33:07;;;;;;;7.10;3.90;;;;;;;4.30;48.32;92555.38;4994599;28;20547;-75
2021/11/07 20:35:37;;;;;;;7.70;4.10;;;;;;;4.30;47.87;92554.59;4986589;28;20089;-75
2021/11/07 20:38:19;;;;;;;5.70;2.60;;;;;;;4.29;48.76;92550.44;4975372;28;20046;-75
2021/11/07 20:40:47;;;;;;;4.43;1.98;;;;;;;4.29;48.16;92553.81;4986367;28;20562;-74
2021/11/07 20:43:16;;;;;;;3.28;1.83;;;;;;;4.30;48.22;92555.38;4993935;28;20492;-74
2021/11/07 20:53:42;;;;;;;5.47;1.95;;;;;;;4.37;48.71;92550.00;4983700;28;20046;-74
2021/11/07 21:01:49;;;;;;;8.65;4.55;;;;;;;4.18;49.99;92545.16;4992248;28;20559;-75
2021/11/07 21:04:30;;;;;;;9.05;4.82;;;;;;;4.15;49.91;92544.88;4982687;28;20034;-74
2021/11/07 21:07:12;;;;;;;9.23;4.00;;;;;;;4.11;49.85;92541.19;4990409;28;20041;-75
2021/11/07 21:09:48;;;;;;;7.15;3.63;;;;;;;4.09;48.75;92540.66;4988554;28;20031;-74
2021/11/07 21:12:17;;;;;;;4.60;2.50;;;;;;;4.05;49.43;92537.78;4992666;28;20042;-74
2021/11/07 21:27:54;;;;;;;5.22;2.60;;;;;;;3.98;50.35;92521.66;4987878;28;20041;-74
2021/11/07 21:30:21;;;;;;;5.13;2.28;;;;;;;3.97;49.72;92513.09;4990409;28;20133;-75
2021/11/07 21:32:46;;;;;;;3.20;1.77;;;;;;;3.94;50.33;92516.19;4981708;28;20427;-74
2021/11/07 21:37:49;;;;;;;3.30;1.75;;;;;;;3.89;50.80;92513.53;4975153;28;20508;-75
2021/11/07 21:43:00;;;;;;;6.30;2.25;;;;;;;3.85;50.09;92509.88;4984503;28;20050;-77
2021/11/07 21:45:26;;;;;;;5.53;1.52;;;;;;;3.83;49.86;92504.16;4985839;28;20375;-77
2021/11/07 21:47:52;;;;;;;3.72;1.50;;;;;;;3.83;49.39;92498.97;4982181;28;20034;-77
2021/11/07 21:50:19;;;;;;;6.00;1.95;;;;;;;3.83;49.28;92498.97;4992041;28;20042;-77
2021/11/07 21:52:45;;;;;;;3.10;1.45;;;;;;;3.85;49.32;92496.94;5022327;28;20038;-77
2021/11/07 21:55:16;;;;;;;1.65;1.02;;;;;;;3.87;49.56;92504.44;4990854;28;20039;-77
2021/11/07 21:57:42;;;;;;;2.97;1.30;;;;;;;3.87;49.09;92504.44;4992648;28;20053;-76
2021/11/07 22:05:53;;;;;;;;;;;;;;;;;;;;;
2021/11/07 22:08:54;;;;;;;2.17;1.23;;;;;;;3.81;48.98;92510.63;4994705;28;20048;-92
2021/11/07 22:11:36;;;;;;;;;;;;;;;;;;;;;
2021/11/07 22:14:45;;;;;;;;;;;;;;;;;;;;;
2021/11/07 22:17:58;;;;;;;3.75;1.80;;;;;;;3.85;49.10;92512.47;4992721;28;20494;-92
2021/11/07 22:21:02;;;;;;;5.93;2.38;;;;;;;3.85;49.88;92501.31;4994355;28;20039;-92
2021/11/07 22:23:43;;;;;;;3.00;1.90;;;;;;;3.83;49.10;92496.41;4978857;28;20191;-91
2021/11/07 22:26:53;;;;;;;5.10;2.00;;;;;;;3.72;49.04;92481.78;4965464;28;20181;-93
2021/11/07 22:29:53;;;;;;;2.22;1.30;;;;;;;3.86;48.64;92488.13;4977924;28;20090;-91
2021/11/07 22:35:40;;;;;;;7.35;1.60;;;;;;;3.76;48.31;92475.09;4964788;28;20189;-92
2021/11/07 22:38:40;;;;;;;3.05;1.85;;;;;;;3.74;48.66;92475.34;4964554;28;20042;-93
2021/11/07 22:41:44;;;;;;;3.08;1.48;;;;;;;3.85;49.28;92478.81;4980246;28;20046;-91
2021/11/07 22:44:51;;;;;;;2.35;1.30;;;;;;;3.77;49.04;92455.94;4973786;28;20034;-92
2021/11/07 22:47:30;;;;;;;1.13;0.93;;;;;;;3.83;49.22;92469.69;4974147;28;20043;-92
2021/11/07 22:50:38;;;;;;;;;;;;;;;;;;;;;
2021/11/07 23:02:25;;;;;;;;;;;;;;;;;;;;;
2021/11/07 23:04:50;;;;;;;1.75;1.10;;;;;;;3.65;49.85;92455.31;4973567;28;20046;-92
2021/11/07 23:07:26;;;;;;;1.08;0.95;;;;;;;3.65;49.43;92445.72;4973934;28;20067;-91
2021/11/07 23:10:25;;;;;;;1.98;1.30;;;;;;;3.81;49.29;92472.53;4963628;28;20484;-91
2021/11/07 23:16:08;;;;;;;1.80;1.00;;;;;;;3.70;49.84;92456.13;4967633;28;20068;-92
2021/11/07 23:18:57;;;;;;;;;;;;;;;;;;;;;
2021/11/07 23:21:47;;;;;;;1.30;0.98;;;;;;;3.70;49.44;92463.91;4993895;28;20046;-92
2021/11/07 23:24:26;;;;;;;1.85;1.13;;;;;;;3.70;49.58;92453.53;4978227;28;20458;-91
2021/11/07 23:27:16;;;;;;;1.83;1.10;;;;;;;3.76;49.54;92456.97;4981292;28;20050;-93
2021/11/07 23:30:11;;;;;;;;;;;;;;;;;;;;;
2021/11/07 23:32:55;;;;;;;2.28;0.95;;;;;;;3.68;49.43;92454.81;4992815;28;20042;-91
2021/11/07 23:35:47;;;;;;;1.15;1.00;;;;;;;3.70;49.46;92457.94;4993986;28;20435;-93
2021/11/07 23:39:03;;;;;;;0.90;0.77;;;;;;;3.59;49.22;92438.16;4978650;28;20104;-94
2021/11/07 23:41:42;;;;;;;2.05;0.90;;;;;;;3.63;49.25;92441.81;4993555;28;20045;-92
2021/11/07 23:44:20;;;;;;;1.02;0.93;;;;;;;3.58;49.29;92436.56;4964061;28;20038;-92
2021/11/07 23:47:11;;;;;;;1.95;1.00;;;;;;;3.55;49.65;92438.63;4961759;28;20043;-92
2021/11/07 23:49:57;;;;;;;0.95;0.85;;;;;;;3.52;50.20;92421.00;4964171;28;20506;-91
2021/11/07 23:55:57;;;;;;;2.08;1.10;;;;;;;3.49;49.68;92431.06;4985648;28;20043;-92
2021/11/07 23:58:56;;;;;;;;;;;;;;;;;;;;;
